createdAt,value
2022-12-16T00:01:15.149Z,-4.10
2022-12-16T00:04:01.749Z,-4.10
2022-12-16T00:06:48.212Z,-4.10
2022-12-16T00:09:34.811Z,-4.20
2022-12-16T00:12:21.134Z,-4.20
2022-12-16T00:15:09.850Z,-4.20
2022-12-16T00:17:56.494Z,-4.20
2022-12-16T00:20:46.785Z,-4.20
2022-12-16T00:23:35.009Z,-4.20
2022-12-16T00:26:21.990Z,-4.30
2022-12-16T00:29:11.055Z,-4.30
2022-12-16T00:31:59.226Z,-4.30
2022-12-16T00:34:45.763Z,-4.30
2022-12-16T00:37:32.762Z,-4.30
2022-12-16T00:40:19.538Z,-4.30
2022-12-16T00:43:06.433Z,-4.40
2022-12-16T00:45:53.290Z,-4.40
2022-12-16T00:48:41.707Z,-4.40
2022-12-16T00:51:28.553Z,-4.40
2022-12-16T00:54:15.019Z,-4.40
2022-12-16T00:57:01.642Z,-4.50
2022-12-16T00:59:48.152Z,-4.40
2022-12-16T01:02:34.689Z,-4.50
2022-12-16T01:05:26.958Z,-4.50
2022-12-16T01:08:13.879Z,-4.50
2022-12-16T01:11:00.205Z,-4.60
2022-12-16T01:13:51.213Z,-4.60
2022-12-16T01:16:38.943Z,-4.60
2022-12-16T01:19:26.047Z,-4.60
2022-12-16T01:22:14.156Z,-4.60
2022-12-16T01:25:01.120Z,-4.60
2022-12-16T01:27:47.777Z,-4.60
2022-12-16T01:30:34.330Z,-4.70
2022-12-16T01:33:20.717Z,-4.70
2022-12-16T01:36:09.220Z,-4.70
2022-12-16T01:38:57.135Z,-4.70
2022-12-16T01:41:43.872Z,-4.60
2022-12-16T01:44:30.254Z,-4.70
2022-12-16T01:47:20.811Z,-4.70
2022-12-16T01:50:12.701Z,-4.70
2022-12-16T01:53:03.449Z,-4.70
2022-12-16T01:55:53.630Z,-4.70
2022-12-16T01:58:42.347Z,-4.70
2022-12-16T02:01:29.061Z,-4.80
2022-12-16T02:04:15.814Z,-4.80
2022-12-16T02:07:03.069Z,-4.80
2022-12-16T02:09:49.709Z,-4.80
2022-12-16T02:12:46.336Z,-4.90
2022-12-16T02:15:42.552Z,-4.90
2022-12-16T02:18:42.275Z,-4.90
2022-12-16T02:21:44.377Z,-5.00
2022-12-16T02:25:20.049Z,-5.00
2022-12-16T02:28:12.743Z,-5.10
2022-12-16T02:31:19.086Z,-5.10
2022-12-16T02:34:18.982Z,-5.10
2022-12-16T02:37:15.628Z,-5.10
2022-12-16T02:40:06.089Z,-5.10
2022-12-16T02:42:56.618Z,-5.10
2022-12-16T02:45:44.527Z,-5.10
2022-12-16T02:48:32.454Z,-5.20
2022-12-16T02:51:19.632Z,-5.20
2022-12-16T02:54:08.160Z,-5.20
2022-12-16T02:57:01.684Z,-5.20
2022-12-16T02:59:57.879Z,-5.20
2022-12-16T03:02:52.512Z,-5.20
2022-12-16T03:05:45.684Z,-5.20
2022-12-16T03:08:36.329Z,-5.20
2022-12-16T03:11:23.670Z,-5.30
2022-12-16T03:14:14.797Z,-5.30
2022-12-16T03:17:02.927Z,-5.30
2022-12-16T03:19:54.470Z,-5.30
2022-12-16T03:22:45.798Z,-5.30
2022-12-16T03:25:35.669Z,-5.30
2022-12-16T03:28:32.690Z,-5.30
2022-12-16T03:31:28.382Z,-5.30
2022-12-16T03:34:23.578Z,-5.40
2022-12-16T03:37:12.965Z,-5.40
2022-12-16T03:40:04.441Z,-5.40
2022-12-16T03:42:52.803Z,-5.40
2022-12-16T03:45:41.875Z,-5.40
2022-12-16T03:48:28.263Z,-5.40
2022-12-16T03:51:15.901Z,-5.40
2022-12-16T03:54:02.294Z,-5.40
2022-12-16T03:56:50.201Z,-5.40
2022-12-16T03:59:36.532Z,-5.40
2022-12-16T04:02:23.216Z,-5.40
2022-12-16T04:05:10.705Z,-5.40
2022-12-16T04:08:01.880Z,-5.40
2022-12-16T04:11:10.051Z,-5.40
2022-12-16T04:14:15.731Z,-5.40
2022-12-16T04:17:19.926Z,-5.50
2022-12-16T04:20:25.322Z,-5.50
2022-12-16T04:23:44.797Z,-5.60
2022-12-16T04:26:31.566Z,-5.60
2022-12-16T04:29:19.515Z,-5.60
2022-12-16T04:32:06.311Z,-5.60
2022-12-16T04:34:52.287Z,-5.60
2022-12-16T04:37:56.031Z,-5.60
2022-12-16T04:41:00.210Z,-5.70
2022-12-16T04:44:04.234Z,-5.60
2022-12-16T04:47:10.036Z,-5.60
2022-12-16T04:50:14.107Z,-5.60
2022-12-16T04:53:18.070Z,-5.60
2022-12-16T04:56:22.328Z,-5.60
2022-12-16T04:59:26.086Z,-5.60
2022-12-16T05:02:31.595Z,-5.70
2022-12-16T05:05:43.929Z,-5.70
2022-12-16T05:08:48.074Z,-5.80
2022-12-16T05:11:52.018Z,-5.80
2022-12-16T05:14:55.925Z,-5.80
2022-12-16T05:18:01.702Z,-5.80
2022-12-16T05:21:05.525Z,-5.80
2022-12-16T05:24:09.621Z,-5.90
2022-12-16T05:27:14.070Z,-5.80
2022-12-16T05:30:18.112Z,-5.80
2022-12-16T05:33:23.810Z,-5.90
2022-12-16T05:36:28.177Z,-5.80
2022-12-16T05:39:32.666Z,-5.90
2022-12-16T05:42:36.558Z,-5.90
2022-12-16T05:45:40.479Z,-5.90
2022-12-16T05:48:47.956Z,-5.90
2022-12-16T05:51:41.810Z,-5.90
2022-12-16T05:54:45.999Z,-5.90
2022-12-16T05:57:50.062Z,-5.90
2022-12-16T06:00:55.131Z,-5.90
2022-12-16T06:04:00.888Z,-6.00
2022-12-16T06:07:05.273Z,-6.00
2022-12-16T06:10:09.217Z,-6.00
2022-12-16T06:13:13.170Z,-6.00
2022-12-16T06:16:17.190Z,-6.00
2022-12-16T06:19:22.847Z,-6.00
2022-12-16T06:22:26.739Z,-6.10
2022-12-16T06:25:30.720Z,-6.10
2022-12-16T06:28:34.731Z,-6.00
2022-12-16T06:31:38.969Z,-6.00
2022-12-16T06:34:44.413Z,-5.90
2022-12-16T06:37:48.431Z,-6.00
2022-12-16T06:41:04.363Z,-5.90
2022-12-16T06:44:08.891Z,-6.00
2022-12-16T06:47:12.877Z,-6.00
2022-12-16T06:50:18.544Z,-5.90
2022-12-16T06:53:22.950Z,-6.00
2022-12-16T06:56:26.995Z,-5.90
2022-12-16T06:59:31.112Z,-5.80
2022-12-16T07:02:35.153Z,-5.80
2022-12-16T07:05:40.691Z,-5.90
2022-12-16T07:08:44.847Z,-5.90
2022-12-16T07:12:00.504Z,-5.90
2022-12-16T07:15:04.949Z,-5.90
2022-12-16T07:18:11.327Z,-5.90
2022-12-16T07:21:22.044Z,-6.00
2022-12-16T07:24:26.671Z,-6.00
2022-12-16T07:27:30.610Z,-6.00
2022-12-16T07:30:34.900Z,-6.00
2022-12-16T07:33:39.089Z,-6.10
2022-12-16T07:36:44.744Z,-6.10
2022-12-16T07:39:52.824Z,-6.10
2022-12-16T07:43:00.195Z,-6.00
2022-12-16T07:46:04.145Z,-6.10
2022-12-16T07:49:19.346Z,-6.10
2022-12-16T07:52:24.839Z,-6.10
2022-12-16T07:55:28.895Z,-6.10
2022-12-16T07:58:32.830Z,-6.00
2022-12-16T08:01:37.229Z,-6.00
2022-12-16T08:04:41.152Z,-6.00
2022-12-16T08:07:46.746Z,-6.00
2022-12-16T08:10:50.894Z,-6.00
2022-12-16T08:13:54.767Z,-5.90
2022-12-16T08:16:59.469Z,-5.90
2022-12-16T08:20:03.456Z,-5.80
2022-12-16T08:23:09.199Z,-5.70
2022-12-16T08:26:13.225Z,-5.60
2022-12-16T08:29:43.037Z,-5.50
2022-12-16T08:32:41.456Z,-5.40
2022-12-16T08:35:45.423Z,-5.20
2022-12-16T08:38:50.893Z,-5.20
2022-12-16T08:41:55.048Z,-5.10
2022-12-16T08:44:59.417Z,-5.00
2022-12-16T08:48:03.579Z,-4.90
2022-12-16T08:51:07.407Z,-4.80
2022-12-16T08:54:12.892Z,-4.70
2022-12-16T08:57:17.372Z,-4.60
2022-12-16T09:00:22.201Z,-4.50
2022-12-16T09:03:26.271Z,-4.40
2022-12-16T09:06:31.630Z,-4.20
2022-12-16T09:09:39.050Z,-4.10
2022-12-16T09:12:42.915Z,-4.10
2022-12-16T09:15:47.047Z,-4.00
2022-12-16T09:18:50.762Z,-4.00
2022-12-16T09:21:54.884Z,-4.00
2022-12-16T09:25:00.288Z,-4.00
2022-12-16T09:28:07.681Z,-3.90
2022-12-16T09:31:12.632Z,-3.80
2022-12-16T09:34:16.616Z,-3.70
2022-12-16T09:37:20.490Z,-3.70
2022-12-16T09:40:31.984Z,-3.60
2022-12-16T09:43:50.478Z,-3.50
2022-12-16T09:47:06.632Z,-3.50
2022-12-16T09:50:28.144Z,-3.50
2022-12-16T09:53:34.711Z,-3.40
2022-12-16T09:56:47.189Z,-3.40
2022-12-16T09:59:56.093Z,-3.30
2022-12-16T10:03:06.475Z,-3.20
2022-12-16T10:06:21.579Z,-3.00
2022-12-16T10:09:33.623Z,-3.00
2022-12-16T10:12:49.010Z,-2.90
2022-12-16T10:16:02.191Z,-2.80
2022-12-16T10:19:16.628Z,-2.80
2022-12-16T10:22:28.518Z,-2.70
2022-12-16T10:25:38.333Z,-2.70
2022-12-16T10:28:57.617Z,-2.50
2022-12-16T10:32:01.777Z,-2.40
2022-12-16T10:35:06.094Z,-2.50
2022-12-16T10:38:24.686Z,-2.40
2022-12-16T10:41:31.419Z,-2.50
2022-12-16T10:44:42.153Z,-2.40
2022-12-16T10:47:46.055Z,-2.30
2022-12-16T10:50:50.023Z,-2.20
2022-12-16T10:54:03.354Z,-2.00
2022-12-16T10:57:16.336Z,-1.80
2022-12-16T11:00:35.546Z,-1.70
2022-12-16T11:03:42.138Z,-1.50
2022-12-16T11:06:55.173Z,-1.60
2022-12-16T11:09:59.513Z,-1.50
2022-12-16T11:13:03.517Z,-1.30
2022-12-16T11:16:25.890Z,-1.20
2022-12-16T11:19:38.864Z,-1.10
2022-12-16T11:22:43.387Z,-1.00
2022-12-16T11:25:47.659Z,-1.10
2022-12-16T11:28:51.833Z,-1.00
2022-12-16T11:31:59.825Z,-1.00
2022-12-16T11:35:12.248Z,-1.00
2022-12-16T11:38:19.207Z,-0.90
2022-12-16T11:41:24.593Z,-0.90
2022-12-16T11:44:38.998Z,-0.90
2022-12-16T11:47:54.782Z,-0.90
2022-12-16T11:51:06.047Z,-0.80
2022-12-16T11:54:13.831Z,-0.90
2022-12-16T11:57:35.192Z,-0.90
2022-12-16T12:00:39.620Z,-0.80
2022-12-16T12:03:47.055Z,-0.70
2022-12-16T12:07:07.515Z,-0.60
2022-12-16T12:10:25.446Z,-0.50
2022-12-16T12:13:46.911Z,-0.50
2022-12-16T12:17:01.805Z,-0.40
2022-12-16T12:20:21.563Z,-0.20
2022-12-16T12:23:26.622Z,-0.20
2022-12-16T12:26:32.647Z,-0.10
2022-12-16T12:29:43.568Z,-0.10
2022-12-16T12:32:55.082Z,-0.10
2022-12-16T12:36:13.937Z,-0.10
2022-12-16T12:39:29.106Z,-0.10
2022-12-16T12:42:49.401Z,-0.10
2022-12-16T12:46:06.104Z,-0.10
2022-12-16T12:49:18.730Z,0.00
2022-12-16T12:52:32.043Z,0.00
2022-12-16T12:55:42.521Z,0.00
2022-12-16T12:58:49.938Z,0.10
2022-12-16T13:01:58.851Z,0.20
2022-12-16T13:05:06.186Z,0.10
2022-12-16T13:08:11.704Z,0.20
2022-12-16T13:11:34.840Z,0.20
2022-12-16T13:15:11.930Z,0.20
2022-12-16T13:18:46.986Z,0.30
2022-12-16T13:22:05.165Z,0.30
2022-12-16T13:25:10.715Z,0.40
2022-12-16T13:28:15.837Z,0.50
2022-12-16T13:31:25.495Z,0.60
2022-12-16T13:34:46.323Z,0.70
2022-12-16T13:37:50.637Z,0.70
2022-12-16T13:41:12.453Z,0.80
2022-12-16T13:44:18.177Z,0.90
2022-12-16T13:47:48.881Z,0.90
2022-12-16T13:50:58.769Z,0.90
2022-12-16T13:54:07.941Z,0.80
2022-12-16T13:57:16.476Z,0.70
2022-12-16T14:00:23.008Z,0.60
2022-12-16T14:03:33.935Z,0.50
2022-12-16T14:06:42.918Z,0.50
2022-12-16T14:09:57.891Z,0.40
2022-12-16T14:13:26.218Z,0.40
2022-12-16T14:16:38.110Z,0.40
2022-12-16T14:19:49.389Z,0.30
2022-12-16T14:23:39.180Z,0.30
2022-12-16T14:26:40.869Z,0.20
2022-12-16T14:29:51.159Z,0.20
2022-12-16T14:32:55.042Z,0.20
2022-12-16T14:36:07.995Z,0.20
2022-12-16T14:39:12.374Z,0.20
2022-12-16T14:42:16.728Z,0.10
2022-12-16T14:45:22.138Z,0.10
2022-12-16T14:48:49.170Z,0.00
2022-12-16T14:51:55.879Z,0.00
2022-12-16T14:55:02.318Z,-0.10
2022-12-16T14:58:20.869Z,-0.10
2022-12-16T15:01:33.532Z,-0.20
2022-12-16T15:04:48.108Z,-0.20
2022-12-16T15:07:56.008Z,-0.20
2022-12-16T15:11:00.787Z,-0.30
2022-12-16T15:14:07.980Z,-0.30
2022-12-16T15:17:14.854Z,-0.40
2022-12-16T15:20:19.310Z,-0.50
2022-12-16T15:23:38.783Z,-0.50
2022-12-16T15:26:45.414Z,-0.60
2022-12-16T15:29:53.117Z,-0.60
2022-12-16T15:33:00.337Z,-0.60
2022-12-16T15:36:15.691Z,-0.70
2022-12-16T15:39:34.599Z,-0.70
2022-12-16T15:42:41.387Z,-0.80
2022-12-16T15:45:48.750Z,-0.90
2022-12-16T15:48:55.344Z,-0.90
2022-12-16T15:52:04.018Z,-1.00
2022-12-16T15:55:10.380Z,-1.10
2022-12-16T15:58:14.868Z,-1.10
2022-12-16T16:01:19.972Z,-1.10
2022-12-16T16:04:36.627Z,-1.10
2022-12-16T16:07:42.969Z,-1.20
2022-12-16T16:10:47.144Z,-1.30
2022-12-16T16:13:51.235Z,-1.30
2022-12-16T16:16:55.613Z,-1.40
2022-12-16T16:20:03.686Z,-1.40
2022-12-16T16:23:08.358Z,-1.50
2022-12-16T16:26:12.415Z,-1.60
2022-12-16T16:29:16.470Z,-1.70
2022-12-16T16:32:20.622Z,-1.70
2022-12-16T16:35:26.235Z,-1.70
2022-12-16T16:38:31.380Z,-1.70
2022-12-16T16:41:35.529Z,-1.70
2022-12-16T16:44:39.585Z,-1.80
2022-12-16T16:47:43.551Z,-1.80
2022-12-16T16:50:49.147Z,-1.80
2022-12-16T16:53:53.639Z,-1.90
2022-12-16T16:56:57.754Z,-1.90
2022-12-16T17:00:01.791Z,-1.90
2022-12-16T17:03:05.820Z,-1.90
2022-12-16T17:06:11.099Z,-2.00
2022-12-16T17:09:11.647Z,-2.00
2022-12-16T17:12:16.131Z,-2.10
2022-12-16T17:15:20.234Z,-2.10
2022-12-16T17:18:25.033Z,-2.10
2022-12-16T17:21:30.621Z,-2.20
2022-12-16T17:24:34.723Z,-2.20
2022-12-16T17:27:41.719Z,-2.20
2022-12-16T17:30:47.863Z,-2.20
2022-12-16T17:33:52.173Z,-2.20
2022-12-16T17:37:06.386Z,-2.30
2022-12-16T17:40:10.616Z,-2.30
2022-12-16T17:43:14.625Z,-2.30
2022-12-16T17:46:20.178Z,-2.40
2022-12-16T17:49:24.019Z,-2.50
2022-12-16T17:52:29.687Z,-2.50
2022-12-16T17:55:34.058Z,-2.50
2022-12-16T17:58:37.920Z,-2.50
2022-12-16T18:01:42.985Z,-2.60
2022-12-16T18:04:46.943Z,-2.60
2022-12-16T18:07:52.582Z,-2.70
2022-12-16T18:10:56.480Z,-2.70
2022-12-16T18:14:00.949Z,-2.70
2022-12-16T18:17:04.928Z,-2.70
2022-12-16T18:20:09.000Z,-2.70
2022-12-16T18:23:14.597Z,-2.70
2022-12-16T18:26:20.111Z,-2.60
2022-12-16T18:29:24.322Z,-2.70
2022-12-16T18:32:33.419Z,-2.80
2022-12-16T18:35:39.004Z,-2.80
2022-12-16T18:38:44.499Z,-2.90
2022-12-16T18:41:48.594Z,-2.80
2022-12-16T18:44:59.209Z,-2.80
2022-12-16T18:48:04.436Z,-2.70
2022-12-16T18:51:12.293Z,-2.80
2022-12-16T18:54:17.894Z,-2.90
2022-12-16T18:57:22.011Z,-2.80
2022-12-16T19:00:27.281Z,-2.80
2022-12-16T19:03:31.314Z,-2.80
2022-12-16T19:06:35.439Z,-2.90
2022-12-16T19:09:41.067Z,-2.80
2022-12-16T19:12:45.061Z,-2.80
2022-12-16T19:15:49.097Z,-2.80
2022-12-16T19:18:53.213Z,-2.80
2022-12-16T19:21:59.811Z,-2.80
2022-12-16T19:25:06.555Z,-2.80
2022-12-16T19:28:10.528Z,-2.80
2022-12-16T19:31:15.080Z,-2.70
2022-12-16T19:34:18.919Z,-2.70
2022-12-16T19:37:23.224Z,-2.70
2022-12-16T19:40:29.741Z,-2.70
2022-12-16T19:43:35.053Z,-2.60
2022-12-16T19:46:39.522Z,-2.60
2022-12-16T19:49:44.704Z,-2.70
2022-12-16T19:52:49.045Z,-2.70
2022-12-16T19:55:54.575Z,-2.60
2022-12-16T19:59:02.912Z,-2.60
2022-12-16T20:02:07.446Z,-2.60
2022-12-16T20:05:11.618Z,-2.50
2022-12-16T20:08:15.630Z,-2.70
2022-12-16T20:11:24.711Z,-2.60
2022-12-16T20:14:28.726Z,-2.60
2022-12-16T20:17:33.098Z,-2.70
2022-12-16T20:20:37.072Z,-2.60
2022-12-16T20:23:41.028Z,-2.50
2022-12-16T20:26:46.723Z,-2.50
2022-12-16T20:29:51.580Z,-2.60
2022-12-16T20:36:36.467Z,-2.50
2022-12-16T20:39:40.703Z,-2.40
2022-12-16T20:42:47.348Z,-2.40
2022-12-16T20:45:51.773Z,-2.40
2022-12-16T20:48:56.966Z,-2.40
2022-12-16T20:52:01.028Z,-2.30
2022-12-16T20:55:05.294Z,-2.30
2022-12-16T20:58:10.840Z,-2.30
2022-12-16T21:01:15.309Z,-2.30
2022-12-16T21:04:19.362Z,-2.30
2022-12-16T21:07:23.520Z,-2.30
2022-12-16T21:10:27.972Z,-2.30
2022-12-16T21:13:36.199Z,-2.30
2022-12-16T21:14:42.429Z,-2.50
2022-12-16T21:16:40.194Z,-2.30
2022-12-16T21:19:46.501Z,-2.30
2022-12-16T21:22:50.998Z,-2.30
2022-12-16T21:25:57.250Z,-2.30
2022-12-16T21:29:02.729Z,-2.30
2022-12-16T21:32:08.022Z,-2.30
2022-12-16T21:35:11.355Z,-2.30
2022-12-16T21:38:16.069Z,-2.20
2022-12-16T21:41:20.113Z,-2.30
2022-12-16T21:44:25.833Z,-2.20
2022-12-16T21:47:29.769Z,-2.30
2022-12-16T21:50:34.143Z,-2.40
2022-12-16T21:53:38.117Z,-2.40
2022-12-16T21:56:41.707Z,-2.30
2022-12-16T21:59:47.082Z,-2.50
2022-12-16T22:02:51.093Z,-2.40
2022-12-16T22:05:56.194Z,-2.30
2022-12-16T22:09:01.398Z,-2.30
2022-12-16T22:12:19.939Z,-2.30
2022-12-16T22:15:26.925Z,-2.20
2022-12-16T22:18:31.183Z,-2.30
2022-12-16T22:21:34.982Z,-2.30
2022-12-16T22:24:38.980Z,-2.20
2022-12-16T22:27:43.253Z,-2.20
2022-12-16T22:30:48.966Z,-2.20
2022-12-16T22:33:53.570Z,-2.20
2022-12-16T22:37:00.569Z,-2.20
2022-12-16T22:40:04.518Z,-2.20
2022-12-16T22:43:08.722Z,-2.20
2022-12-16T22:46:20.140Z,-2.20
2022-12-16T22:49:24.325Z,-2.20
2022-12-16T22:52:28.352Z,-2.10
2022-12-16T22:55:35.171Z,-2.20
2022-12-16T22:58:51.126Z,-2.20
2022-12-16T23:01:57.669Z,-2.20
2022-12-16T23:05:01.619Z,-2.10
2022-12-16T23:08:06.377Z,-2.10
2022-12-16T23:11:13.370Z,-2.10
2022-12-16T23:14:17.495Z,-2.20
2022-12-16T23:17:23.182Z,-2.20
2022-12-16T23:20:29.096Z,-2.20
2022-12-16T23:23:35.289Z,-2.20
2022-12-16T23:26:40.277Z,-2.30
2022-12-16T23:29:44.181Z,-2.30
2022-12-16T23:32:49.972Z,-2.30
2022-12-16T23:35:54.022Z,-2.40
2022-12-16T23:38:59.571Z,-2.50
2022-12-16T23:42:03.694Z,-2.60
2022-12-16T23:45:07.653Z,-2.60
2022-12-16T23:48:20.182Z,-2.60
2022-12-16T23:51:24.620Z,-2.70
2022-12-16T23:54:27.740Z,-2.80
2022-12-16T23:57:32.062Z,-2.80
